Time,TemperatureF,DewpointF,PressureIn,WindDirection,WindDirectionDegrees,WindSpeedMPH,WindSpeedGustMPH,Humidity,HourlyPrecipIn,Conditions,Clouds,dailyrainin,SoftwareType,DateUTC
2013-11-06 00:21:00,20.0,3.0,23.50,NW,325,0.0,0.0,47,-99.99,,,0.00,,2013-11-06 07:21:00,
2013-11-06 00:42:00,19.0,2.0,23.50,NNW,327,0.0,0.0,47,-99.99,,,0.00,,2013-11-06 07:42:00,
2013-11-06 01:22:00,20.0,2.0,23.52,WNW,302,0.0,0.0,44,-99.99,,,0.00,,2013-11-06 08:22:00,
2013-11-06 01:42:00,22.0,2.0,23.51,NW,305,0.0,0.0,40,-99.99,,,0.00,,2013-11-06 08:42:00,
2013-11-06 02:22:00,21.0,1.0,23.52,NW,313,0.0,0.0,41,-99.99,,,0.00,,2013-11-06 09:22:00,
2013-11-06 03:23:00,19.0,0.0,23.53,NW,315,0.0,0.0,44,-99.99,,,0.00,,2013-11-06 10:23:00,
2013-11-06 04:42:00,19.0,-1.0,23.54,NW,315,0.0,0.0,41,-99.99,,,0.00,,2013-11-06 11:42:00,
2013-11-06 05:12:00,17.0,0.0,23.55,NW,315,0.0,0.0,45,-99.99,,,0.00,,2013-11-06 12:12:00,
2013-11-06 05:42:00,16.0,-1.0,23.54,NW,315,0.0,0.0,46,-99.99,,,0.00,,2013-11-06 12:42:00,
2013-11-06 06:21:00,16.0,0.0,23.55,NW,315,0.0,0.0,48,-99.99,,,0.00,,2013-11-06 13:21:00,
2013-11-06 07:22:00,16.0,0.0,23.57,NW,315,0.0,0.0,48,-99.99,,,0.00,,2013-11-06 14:22:00,
2013-11-06 07:42:00,17.0,1.0,23.57,NW,315,0.0,0.0,47,-99.99,,,0.00,,2013-11-06 14:42:00,
2013-11-06 09:23:00,35.0,2.0,23.62,NE,54,3.0,11.0,24,-99.99,,,0.00,,2013-11-06 16:23:00,
2013-11-06 10:22:00,38.0,0.0,23.63,ESE,110,2.0,13.0,19,-99.99,,,0.00,,2013-11-06 17:22:00,
2013-11-06 10:43:00,40.0,0.0,23.63,ENE,69,2.0,11.0,18,-99.99,,,0.00,,2013-11-06 17:43:00,
2013-11-06 11:42:00,43.0,-2.0,23.66,ENE,58,6.0,14.0,15,-99.99,,,0.00,,2013-11-06 18:42:00,
2013-11-06 12:21:00,45.0,-1.0,23.67,East,101,3.0,16.0,14,-99.99,,,0.00,,2013-11-06 19:21:00,
2013-11-06 12:42:00,47.0,-2.0,23.68,East,101,4.0,16.0,13,-99.99,,,0.00,,2013-11-06 19:42:00,
2013-11-06 13:22:00,48.0,-2.0,23.68,ENE,64,0.0,18.0,12,-99.99,,,0.00,,2013-11-06 20:22:00,
2013-11-06 20:21:00,30.0,-2.0,23.64,ENE,61,0.0,0.0,24,-99.99,,,0.00,,2013-11-07 03:21:00,
2013-11-06 20:44:00,28.0,-3.0,23.64,ENE,61,0.0,0.0,25,-99.99,,,0.00,,2013-11-07 03:44:00,
2013-11-06 21:24:00,28.0,-3.0,23.65,ENE,61,0.0,0.0,26,-99.99,,,0.00,,2013-11-07 04:24:00,
2013-11-06 21:43:00,27.0,-2.0,23.65,ENE,61,0.0,0.0,27,-99.99,,,0.00,,2013-11-07 04:43:00,
2013-11-06 22:13:00,26.0,-3.0,23.65,ENE,61,0.0,0.0,27,-99.99,,,0.00,,2013-11-07 05:13:00,
2013-11-06 22:44:00,26.0,-3.0,23.65,ENE,61,0.0,0.0,27,-99.99,,,0.00,,2013-11-07 05:44:00,
2013-11-06 23:42:00,26.0,-3.0,23.64,ENE,61,0.0,0.0,28,-99.99,,,0.00,,2013-11-07 06:42:00,